THA1123 VTPH-VTSP
Flight info
| Callsign | THA1123 |
|---|---|
| Flight time | 0h 52m |
| Altitude | 32000 |
| Route | CPN DCT STN DCT ANFIL |
| Aircraft | A320/M-SDE3FGHIRWY/LB1 |
Departure
| Time | 2026-05-04 11:41 |
|---|---|
| Airport | Hua Hin Airport (VTPH) |
Arrival
| Time | 2026-05-04 12:33 |
|---|---|
| Airport | Phuket International Airport (VTSP) |
| Time | Latitude | Longitude | Altitude | Speed | Heading |
|---|---|---|---|---|---|
| 2026-05-04 11:33 | 12.62855 | 99.95182 | 11 ft | 0 kts | 74° |
| 2026-05-04 11:37 | 12.62860 | 99.95197 | 7 ft | 5 kts | 74° |
| 2026-05-04 11:37 | 12.62877 | 99.95254 | 4 ft | 11 kts | 65° |
| 2026-05-04 11:37 | 12.62936 | 99.95248 | 6 ft | 8 kts | 333° |
| 2026-05-04 11:38 | 12.62978 | 99.95227 | 9 ft | 6 kts | 336° |
| 2026-05-04 11:38 | 12.63035 | 99.95207 | 11 ft | 10 kts | 342° |
| 2026-05-04 11:38 | 12.63134 | 99.95178 | 14 ft | 18 kts | 344° |
| 2026-05-04 11:38 | 12.63276 | 99.95150 | 18 ft | 23 kts | 5° |
| 2026-05-04 11:39 | 12.63451 | 99.95177 | 24 ft | 27 kts | 357° |
| 2026-05-04 11:39 | 12.63643 | 99.95111 | 30 ft | 31 kts | 339° |
| 2026-05-04 11:40 | 12.64375 | 99.94837 | 51 ft | 1 kts | 162° |
| 2026-05-04 11:41 | 12.64243 | 99.94885 | 46 ft | 53 kts | 160° |
| 2026-05-04 11:41 | 12.63694 | 99.95092 | 33 ft | 112 kts | 160° |
| 2026-05-04 11:41 | 12.62834 | 99.95412 | 183 ft | 140 kts | 160° |
| 2026-05-04 11:41 | 12.61916 | 99.95742 | 728 ft | 139 kts | 161° |
| 2026-05-04 11:42 | 12.61305 | 99.95954 | 1075 ft | 140 kts | 161° |
| 2026-05-04 11:42 | 12.60347 | 99.96293 | 1453 ft | 155 kts | 161° |
| 2026-05-04 11:42 | 12.58875 | 99.96838 | 1790 ft | 185 kts | 155° |
| 2026-05-04 11:42 | 12.57817 | 99.97718 | 2037 ft | 211 kts | 136° |
| 2026-05-04 11:43 | 12.56543 | 99.98572 | 2330 ft | 233 kts | 165° |
| 2026-05-04 11:43 | 12.54857 | 99.98774 | 2804 ft | 253 kts | 179° |
| 2026-05-04 11:43 | 12.53064 | 99.98733 | 3538 ft | 262 kts | 182° |
| 2026-05-04 11:43 | 12.51225 | 99.98667 | 4355 ft | 267 kts | 181° |
| 2026-05-04 11:44 | 12.49987 | 99.98645 | 4880 ft | 270 kts | 179° |
| 2026-05-04 11:44 | 12.48097 | 99.98661 | 5730 ft | 273 kts | 177° |
| 2026-05-04 11:44 | 12.46194 | 99.98728 | 6573 ft | 275 kts | 175° |
| 2026-05-04 11:44 | 12.44275 | 99.98836 | 7361 ft | 278 kts | 174° |
| 2026-05-04 11:45 | 12.42331 | 99.98973 | 8086 ft | 283 kts | 174° |
| 2026-05-04 11:45 | 12.39704 | 99.99172 | 9049 ft | 289 kts | 173° |
| 2026-05-04 11:45 | 12.37683 | 99.99328 | 9776 ft | 293 kts | 174° |
| 2026-05-04 11:45 | 12.36301 | 99.99436 | 10162 ft | 300 kts | 174° |
| 2026-05-04 11:46 | 12.33409 | 99.99664 | 10394 ft | 330 kts | 174° |
| 2026-05-04 11:46 | 12.31827 | 99.99786 | 10507 ft | 343 kts | 174° |
| 2026-05-04 11:46 | 12.29412 | 99.99969 | 10970 ft | 352 kts | 174° |
| 2026-05-04 11:46 | 12.26955 | 100.00156 | 11550 ft | 356 kts | 174° |
| 2026-05-04 11:47 | 12.24507 | 100.00341 | 12140 ft | 359 kts | 174° |
| 2026-05-04 11:47 | 12.22005 | 100.00531 | 12724 ft | 362 kts | 174° |
| 2026-05-04 11:47 | 12.19478 | 100.00726 | 13308 ft | 366 kts | 174° |
| 2026-05-04 11:47 | 12.16926 | 100.00920 | 13843 ft | 370 kts | 174° |
| 2026-05-04 11:48 | 12.14347 | 100.01113 | 14348 ft | 373 kts | 174° |
| 2026-05-04 11:48 | 12.11746 | 100.01308 | 14836 ft | 377 kts | 174° |
| 2026-05-04 11:48 | 12.09122 | 100.01505 | 15337 ft | 380 kts | 174° |
| 2026-05-04 11:48 | 12.06476 | 100.01707 | 15825 ft | 383 kts | 174° |
| 2026-05-04 11:49 | 12.03796 | 100.01739 | 16298 ft | 388 kts | 184° |
| 2026-05-04 11:49 | 12.01161 | 100.01261 | 16768 ft | 392 kts | 194° |
| 2026-05-04 11:49 | 11.98525 | 100.00493 | 17243 ft | 395 kts | 195° |
| 2026-05-04 11:49 | 11.95874 | 99.99719 | 17749 ft | 398 kts | 195° |
| 2026-05-04 11:50 | 11.93194 | 99.98940 | 18200 ft | 402 kts | 195° |
| 2026-05-04 11:50 | 11.90496 | 99.98159 | 18611 ft | 405 kts | 195° |
| 2026-05-04 11:50 | 11.87772 | 99.97375 | 19015 ft | 408 kts | 195° |
| 2026-05-04 11:50 | 11.85038 | 99.96588 | 19463 ft | 410 kts | 195° |
| 2026-05-04 11:51 | 11.82282 | 99.95794 | 19906 ft | 411 kts | 195° |
| 2026-05-04 11:51 | 11.79523 | 99.94997 | 20335 ft | 414 kts | 195° |
| 2026-05-04 11:51 | 11.76744 | 99.94195 | 20747 ft | 416 kts | 195° |
| 2026-05-04 11:51 | 11.73949 | 99.93388 | 21155 ft | 419 kts | 195° |
| 2026-05-04 11:52 | 11.71132 | 99.92575 | 21550 ft | 422 kts | 195° |
| 2026-05-04 11:52 | 11.68300 | 99.91758 | 21953 ft | 424 kts | 195° |
| 2026-05-04 11:52 | 11.65493 | 99.90948 | 22355 ft | 426 kts | 195° |
| 2026-05-04 11:52 | 11.62636 | 99.90122 | 22721 ft | 428 kts | 195° |
| 2026-05-04 11:53 | 11.59757 | 99.89291 | 23090 ft | 431 kts | 196° |
| 2026-05-04 11:53 | 11.56863 | 99.88458 | 23433 ft | 434 kts | 196° |
| 2026-05-04 11:53 | 11.53953 | 99.87621 | 23742 ft | 435 kts | 196° |
| 2026-05-04 11:53 | 11.51030 | 99.86782 | 24052 ft | 437 kts | 196° |
| 2026-05-04 11:55 | 11.30276 | 99.80801 | 26121 ft | 450 kts | 196° |
| 2026-05-04 11:55 | 11.27247 | 99.79935 | 26397 ft | 453 kts | 196° |
| 2026-05-04 11:56 | 11.24203 | 99.79063 | 26675 ft | 454 kts | 196° |
| 2026-05-04 11:56 | 11.21153 | 99.78187 | 26966 ft | 456 kts | 196° |
| 2026-05-04 11:56 | 11.18096 | 99.77307 | 27252 ft | 458 kts | 196° |
| 2026-05-04 11:56 | 11.15026 | 99.76424 | 27527 ft | 460 kts | 196° |
| 2026-05-04 11:57 | 11.11943 | 99.75522 | 27777 ft | 462 kts | 196° |
| 2026-05-04 11:57 | 11.08860 | 99.74577 | 28045 ft | 464 kts | 197° |
| 2026-05-04 11:57 | 11.05807 | 99.73613 | 28330 ft | 466 kts | 197° |
| 2026-05-04 11:57 | 11.02711 | 99.72619 | 28606 ft | 468 kts | 198° |
| 2026-05-04 11:58 | 10.99607 | 99.71620 | 28870 ft | 470 kts | 197° |
| 2026-05-04 11:58 | 10.96476 | 99.70622 | 29127 ft | 472 kts | 197° |
| 2026-05-04 11:58 | 10.93342 | 99.69636 | 29415 ft | 473 kts | 197° |
| 2026-05-04 11:58 | 10.90189 | 99.68651 | 29780 ft | 473 kts | 197° |
| 2026-05-04 11:59 | 10.87044 | 99.67671 | 30134 ft | 472 kts | 197° |
| 2026-05-04 11:59 | 10.83910 | 99.66694 | 30466 ft | 471 kts | 197° |
| 2026-05-04 11:59 | 10.80774 | 99.65717 | 30819 ft | 470 kts | 197° |
| 2026-05-04 11:59 | 10.77651 | 99.64741 | 31179 ft | 469 kts | 197° |
| 2026-05-04 12:00 | 10.74524 | 99.63761 | 31453 ft | 471 kts | 197° |
| 2026-05-04 12:00 | 10.71432 | 99.62795 | 31732 ft | 472 kts | 196° |
| 2026-05-04 12:00 | 10.68289 | 99.61814 | 31827 ft | 472 kts | 196° |
| 2026-05-04 12:01 | 10.62023 | 99.59856 | 31846 ft | 470 kts | 197° |
| 2026-05-04 12:02 | 10.40168 | 99.53023 | 31837 ft | 471 kts | 196° |
| 2026-05-04 12:03 | 10.33897 | 99.51076 | 31836 ft | 471 kts | 196° |
| 2026-05-04 12:03 | 10.27623 | 99.49123 | 31844 ft | 472 kts | 196° |
| 2026-05-04 12:04 | 10.21345 | 99.47162 | 31848 ft | 472 kts | 196° |
| 2026-05-04 12:04 | 10.15104 | 99.45217 | 31857 ft | 472 kts | 197° |
| 2026-05-04 12:05 | 10.08821 | 99.43253 | 31859 ft | 472 kts | 197° |
| 2026-05-04 12:05 | 10.02533 | 99.41293 | 31856 ft | 472 kts | 197° |
| 2026-05-04 12:06 | 9.96246 | 99.39337 | 31856 ft | 472 kts | 197° |
| 2026-05-04 12:06 | 9.89959 | 99.37384 | 31851 ft | 472 kts | 197° |
| 2026-05-04 12:07 | 9.83711 | 99.35442 | 31851 ft | 472 kts | 197° |
| 2026-05-04 12:07 | 9.77421 | 99.33486 | 31851 ft | 472 kts | 197° |
| 2026-05-04 12:08 | 9.71134 | 99.31535 | 31852 ft | 473 kts | 197° |
| 2026-05-04 12:08 | 9.64843 | 99.29584 | 31849 ft | 473 kts | 197° |
| 2026-05-04 12:09 | 9.58596 | 99.27643 | 31849 ft | 473 kts | 197° |
| 2026-05-04 12:09 | 9.52312 | 99.25691 | 31845 ft | 472 kts | 197° |
| 2026-05-04 12:10 | 9.46027 | 99.23735 | 31851 ft | 472 kts | 197° |
| 2026-05-04 12:10 | 9.39746 | 99.21786 | 31845 ft | 472 kts | 197° |
| 2026-05-04 12:11 | 9.33466 | 99.19838 | 31847 ft | 472 kts | 197° |
| 2026-05-04 12:11 | 9.27190 | 99.17893 | 31851 ft | 471 kts | 197° |
| 2026-05-04 12:12 | 9.20966 | 99.15960 | 31844 ft | 471 kts | 197° |
| 2026-05-04 12:12 | 9.14745 | 99.13922 | 31846 ft | 470 kts | 203° |
| 2026-05-04 12:14 | 8.94042 | 98.97987 | 30511 ft | 466 kts | 219° |
| 2026-05-04 12:15 | 8.91512 | 98.95921 | 29862 ft | 465 kts | 219° |
| 2026-05-04 12:15 | 8.89004 | 98.93871 | 29196 ft | 463 kts | 219° |
| 2026-05-04 12:15 | 8.86511 | 98.91831 | 28581 ft | 459 kts | 219° |
| 2026-05-04 12:15 | 8.84039 | 98.89805 | 27955 ft | 456 kts | 219° |
| 2026-05-04 12:16 | 8.81581 | 98.87791 | 27328 ft | 453 kts | 218° |
| 2026-05-04 12:16 | 8.79140 | 98.85794 | 26718 ft | 450 kts | 218° |
| 2026-05-04 12:16 | 8.76713 | 98.83813 | 26116 ft | 448 kts | 218° |
| 2026-05-04 12:16 | 8.74293 | 98.81843 | 25522 ft | 445 kts | 218° |
| 2026-05-04 12:17 | 8.71885 | 98.79885 | 24914 ft | 443 kts | 218° |
| 2026-05-04 12:17 | 8.69489 | 98.77939 | 24325 ft | 441 kts | 218° |
| 2026-05-04 12:17 | 8.67131 | 98.76026 | 23760 ft | 439 kts | 218° |
| 2026-05-04 12:17 | 8.64753 | 98.74096 | 23141 ft | 438 kts | 218° |
| 2026-05-04 12:18 | 8.62391 | 98.72176 | 22581 ft | 434 kts | 218° |
| 2026-05-04 12:18 | 8.60053 | 98.70274 | 22056 ft | 429 kts | 218° |
| 2026-05-04 12:18 | 8.57741 | 98.68393 | 21540 ft | 425 kts | 218° |
| 2026-05-04 12:18 | 8.55445 | 98.66527 | 21031 ft | 423 kts | 218° |
| 2026-05-04 12:19 | 8.53090 | 98.64614 | 20515 ft | 449 kts | 218° |
| 2026-05-04 12:19 | 8.50730 | 98.62408 | 19969 ft | 475 kts | 228° |
| 2026-05-04 12:19 | 8.48780 | 98.59616 | 19443 ft | 499 kts | 240° |
| 2026-05-04 12:19 | 8.47096 | 98.56575 | 19049 ft | 491 kts | 240° |
| 2026-05-04 12:20 | 8.45448 | 98.53597 | 18367 ft | 480 kts | 240° |
| 2026-05-04 12:20 | 8.43894 | 98.50794 | 17543 ft | 445 kts | 239° |
| 2026-05-04 12:20 | 8.42381 | 98.48178 | 16819 ft | 420 kts | 238° |
| 2026-05-04 12:20 | 8.40915 | 98.45721 | 16315 ft | 398 kts | 238° |
| 2026-05-04 12:21 | 8.39500 | 98.43359 | 15560 ft | 387 kts | 238° |
| 2026-05-04 12:21 | 8.38145 | 98.41072 | 15021 ft | 374 kts | 238° |
| 2026-05-04 12:21 | 8.36824 | 98.38818 | 14476 ft | 373 kts | 238° |
| 2026-05-04 12:21 | 8.35511 | 98.36556 | 13926 ft | 373 kts | 239° |
| 2026-05-04 12:22 | 8.34205 | 98.34294 | 13347 ft | 373 kts | 239° |
| 2026-05-04 12:22 | 8.32906 | 98.32035 | 12777 ft | 371 kts | 239° |
| 2026-05-04 12:22 | 8.31619 | 98.29787 | 12227 ft | 369 kts | 239° |
| 2026-05-04 12:22 | 8.30338 | 98.27554 | 11678 ft | 367 kts | 238° |
| 2026-05-04 12:23 | 8.29059 | 98.25328 | 11129 ft | 365 kts | 238° |
| 2026-05-04 12:23 | 8.27785 | 98.23119 | 10688 ft | 361 kts | 238° |
| 2026-05-04 12:23 | 8.26538 | 98.20957 | 10470 ft | 350 kts | 238° |
| 2026-05-04 12:23 | 8.25352 | 98.18896 | 10356 ft | 338 kts | 238° |
| 2026-05-04 12:24 | 8.24193 | 98.16880 | 10242 ft | 326 kts | 238° |
| 2026-05-04 12:24 | 8.23070 | 98.14931 | 10117 ft | 316 kts | 238° |
| 2026-05-04 12:24 | 8.21972 | 98.13033 | 9909 ft | 311 kts | 238° |
| 2026-05-04 12:24 | 8.20869 | 98.11136 | 9396 ft | 312 kts | 238° |
| 2026-05-04 12:25 | 8.19905 | 98.09201 | 8828 ft | 308 kts | 250° |
| 2026-05-04 12:25 | 8.19435 | 98.07106 | 8213 ft | 305 kts | 261° |
| 2026-05-04 12:25 | 8.19122 | 98.05007 | 7821 ft | 294 kts | 258° |
| 2026-05-04 12:25 | 8.18415 | 98.03156 | 7574 ft | 278 kts | 233° |
| 2026-05-04 12:26 | 8.17048 | 98.01882 | 7399 ft | 266 kts | 207° |
| 2026-05-04 12:26 | 8.15298 | 98.01290 | 6798 ft | 267 kts | 180° |
| 2026-05-04 12:26 | 8.13476 | 98.01398 | 6305 ft | 262 kts | 172° |
| 2026-05-04 12:26 | 8.11681 | 98.01580 | 5826 ft | 259 kts | 170° |
| 2026-05-04 12:27 | 8.10081 | 98.02102 | 5632 ft | 227 kts | 142° |
| 2026-05-04 12:27 | 8.09065 | 98.03247 | 5437 ft | 220 kts | 114° |
| 2026-05-04 12:27 | 8.08764 | 98.04720 | 5111 ft | 215 kts | 86° |
| 2026-05-04 12:27 | 8.08912 | 98.06227 | 4790 ft | 216 kts | 84° |
| 2026-05-04 12:28 | 8.09064 | 98.07741 | 4468 ft | 217 kts | 84° |
| 2026-05-04 12:28 | 8.09216 | 98.09261 | 4150 ft | 218 kts | 85° |
| 2026-05-04 12:28 | 8.09365 | 98.10768 | 3836 ft | 213 kts | 85° |
| 2026-05-04 12:28 | 8.09503 | 98.12218 | 3582 ft | 201 kts | 85° |
| 2026-05-04 12:29 | 8.09631 | 98.13570 | 3311 ft | 187 kts | 85° |
| 2026-05-04 12:29 | 8.09750 | 98.14842 | 3063 ft | 178 kts | 86° |
| 2026-05-04 12:29 | 8.09864 | 98.16073 | 2823 ft | 175 kts | 86° |
| 2026-05-04 12:29 | 8.09976 | 98.17286 | 2590 ft | 172 kts | 87° |
| 2026-05-04 12:30 | 8.10084 | 98.18466 | 2359 ft | 170 kts | 86° |
| 2026-05-04 12:30 | 8.10188 | 98.19609 | 2140 ft | 159 kts | 86° |
| 2026-05-04 12:30 | 8.10288 | 98.20683 | 1941 ft | 150 kts | 86° |
| 2026-05-04 12:30 | 8.10386 | 98.21729 | 1737 ft | 150 kts | 87° |
| 2026-05-04 12:31 | 8.10485 | 98.22777 | 1536 ft | 150 kts | 86° |
| 2026-05-04 12:31 | 8.10584 | 98.23821 | 1327 ft | 150 kts | 86° |
| 2026-05-04 12:31 | 8.10682 | 98.24859 | 1126 ft | 148 kts | 86° |
| 2026-05-04 12:31 | 8.10779 | 98.25891 | 939 ft | 148 kts | 86° |
| 2026-05-04 12:32 | 8.10875 | 98.26918 | 676 ft | 145 kts | 85° |
| 2026-05-04 12:32 | 8.11054 | 98.28888 | 262 ft | 139 kts | 84° |
| 2026-05-04 12:32 | 8.11146 | 98.29856 | 100 ft | 139 kts | 84° |
| 2026-05-04 12:33 | 8.11238 | 98.30808 | 9 ft | 126 kts | 84° |
| 2026-05-04 12:33 | 8.11306 | 98.31526 | 29 ft | 78 kts | 84° |
| 2026-05-04 12:33 | 8.11351 | 98.32020 | 36 ft | 62 kts | 85° |
| 2026-05-04 12:33 | 8.11362 | 98.32306 | 41 ft | 28 kts | 101° |
| 2026-05-04 12:34 | 8.11298 | 98.32432 | 45 ft | 16 kts | 152° |
| 2026-05-04 12:34 | 8.11248 | 98.32344 | 43 ft | 21 kts | 265° |
| 2026-05-04 12:34 | 8.11232 | 98.32175 | 39 ft | 27 kts | 265° |
| 2026-05-04 12:34 | 8.11212 | 98.31970 | 35 ft | 31 kts | 265° |
| 2026-05-04 12:35 | 8.11191 | 98.31737 | 30 ft | 35 kts | 264° |
| 2026-05-04 12:35 | 8.11166 | 98.31482 | 24 ft | 38 kts | 265° |
| 2026-05-04 12:35 | 8.11141 | 98.31208 | 17 ft | 40 kts | 265° |